createdAt,value
2023-01-27T00:00:54.553Z,5.40
2023-01-27T00:03:21.655Z,5.40
2023-01-27T00:05:48.422Z,5.50
2023-01-27T00:08:15.640Z,5.30
2023-01-27T00:10:42.548Z,5.40
2023-01-27T00:13:34.265Z,5.40
2023-01-27T00:16:00.977Z,5.40
2023-01-27T00:18:28.785Z,5.40
2023-01-27T00:21:14.204Z,5.60
2023-01-27T00:24:01.687Z,5.40
2023-01-27T00:26:28.443Z,5.40
2023-01-27T00:28:55.136Z,5.30
2023-01-27T00:31:41.825Z,5.40
2023-01-27T00:34:09.258Z,5.40
2023-01-27T00:36:38.240Z,5.30
2023-01-27T00:39:10.547Z,5.40
2023-01-27T00:41:37.604Z,5.40
2023-01-27T00:44:05.734Z,5.30
2023-01-27T00:46:33.030Z,5.40
2023-01-27T00:48:59.762Z,5.30
2023-01-27T00:51:26.588Z,5.30
2023-01-27T00:53:53.338Z,5.30
2023-01-27T00:56:20.079Z,5.20
2023-01-27T00:58:46.908Z,5.30
2023-01-27T01:01:15.824Z,5.20
2023-01-27T01:03:42.972Z,5.30
2023-01-27T01:06:12.774Z,5.40
2023-01-27T01:08:39.942Z,5.20
2023-01-27T01:11:08.348Z,5.30
2023-01-27T01:13:35.471Z,5.20
2023-01-27T01:16:14.611Z,5.10
2023-01-27T01:18:43.481Z,5.10
2023-01-27T01:21:11.357Z,5.00
2023-01-27T01:23:40.030Z,5.10
2023-01-27T01:26:07.449Z,5.00
2023-01-27T01:28:34.597Z,5.20
2023-01-27T01:31:06.427Z,5.10
2023-01-27T01:33:33.331Z,5.00
2023-01-27T01:36:14.745Z,5.10
2023-01-27T01:38:42.459Z,5.10
2023-01-27T01:41:13.384Z,5.00
2023-01-27T01:43:40.143Z,5.00
2023-01-27T01:46:10.222Z,5.00
2023-01-27T01:48:57.981Z,5.20
2023-01-27T01:51:35.225Z,5.10
2023-01-27T01:55:02.224Z,5.10
2023-01-27T01:57:33.770Z,5.20
2023-01-27T02:00:04.073Z,5.10
2023-01-27T02:02:31.795Z,5.20
2023-01-27T02:05:01.431Z,5.10
2023-01-27T02:08:06.669Z,5.00
2023-01-27T02:10:35.437Z,5.00
2023-01-27T02:13:02.192Z,5.00
2023-01-27T02:15:30.730Z,5.00
2023-01-27T02:17:59.184Z,5.20
2023-01-27T02:20:34.770Z,5.00
2023-01-27T02:23:12.389Z,5.10
2023-01-27T02:25:48.935Z,4.80
2023-01-27T02:28:15.613Z,4.70
2023-01-27T02:30:42.401Z,4.80
2023-01-27T02:33:13.939Z,4.90
2023-01-27T02:36:03.777Z,4.80
2023-01-27T02:38:35.024Z,4.90
2023-01-27T02:41:17.022Z,4.80
2023-01-27T02:43:43.742Z,4.80
2023-01-27T02:46:11.012Z,4.70
2023-01-27T02:48:37.702Z,4.60
2023-01-27T02:51:04.538Z,4.60
2023-01-27T02:53:31.238Z,4.80
2023-01-27T02:55:57.890Z,5.10
2023-01-27T02:58:24.646Z,4.80
2023-01-27T03:00:51.308Z,4.60
2023-01-27T03:03:18.053Z,4.60
2023-01-27T03:05:45.984Z,4.70
2023-01-27T03:08:12.729Z,4.60
2023-01-27T03:10:39.469Z,4.40
2023-01-27T03:13:06.231Z,4.70
2023-01-27T03:15:51.668Z,4.70
2023-01-27T03:18:18.608Z,4.60
2023-01-27T03:20:47.630Z,4.50
2023-01-27T03:23:18.630Z,4.70
2023-01-27T03:25:48.075Z,4.70
2023-01-27T03:28:16.185Z,4.60
2023-01-27T03:30:43.020Z,4.60
2023-01-27T03:33:09.991Z,4.50
2023-01-27T03:35:48.320Z,4.60
2023-01-27T03:38:34.667Z,4.70
2023-01-27T03:41:23.212Z,4.60
2023-01-27T03:44:08.820Z,4.50
2023-01-27T03:46:35.525Z,4.70
2023-01-27T03:49:02.304Z,4.60
2023-01-27T03:51:29.056Z,4.80
2023-01-27T03:53:55.684Z,4.70
2023-01-27T03:56:24.102Z,4.60
2023-01-27T03:58:50.993Z,4.60
2023-01-27T04:01:23.151Z,4.60
2023-01-27T04:04:09.458Z,4.80
2023-01-27T04:06:58.192Z,4.50
2023-01-27T04:09:30.656Z,4.70
2023-01-27T04:11:59.937Z,4.60
2023-01-27T04:14:42.654Z,4.60
2023-01-27T04:17:19.318Z,4.60
2023-01-27T04:19:46.938Z,4.70
2023-01-27T04:22:15.820Z,4.70
2023-01-27T04:24:42.812Z,4.50
2023-01-27T04:27:15.394Z,4.60
2023-01-27T04:29:42.895Z,4.50
2023-01-27T04:32:15.163Z,4.80
2023-01-27T04:34:42.484Z,4.70
2023-01-27T04:37:12.108Z,4.70
2023-01-27T04:39:38.876Z,4.70
2023-01-27T04:42:05.559Z,4.80
2023-01-27T04:44:32.267Z,4.70
2023-01-27T04:46:59.004Z,4.80
2023-01-27T04:49:27.000Z,4.70
2023-01-27T04:51:54.572Z,4.70
2023-01-27T04:54:21.262Z,4.70
2023-01-27T04:56:59.906Z,4.80
2023-01-27T04:59:26.634Z,5.00
2023-01-27T05:01:53.668Z,4.70
2023-01-27T05:04:20.694Z,4.60
2023-01-27T05:06:47.524Z,4.70
2023-01-27T05:09:14.330Z,4.80
2023-01-27T05:11:42.080Z,4.70
2023-01-27T05:14:08.820Z,4.70
2023-01-27T05:16:35.659Z,4.70
2023-01-27T05:19:02.425Z,4.70
2023-01-27T05:21:30.824Z,4.90
2023-01-27T05:23:57.714Z,4.80
2023-01-27T05:26:26.873Z,4.80
2023-01-27T05:28:56.319Z,4.70
2023-01-27T05:31:26.023Z,4.80
2023-01-27T05:33:54.496Z,4.70
2023-01-27T05:36:22.939Z,5.00
2023-01-27T05:38:49.868Z,4.90
2023-01-27T05:41:18.206Z,4.90
2023-01-27T05:43:46.689Z,4.80
2023-01-27T05:46:15.940Z,4.70
2023-01-27T05:48:44.805Z,4.70
2023-01-27T05:51:14.836Z,4.70
2023-01-27T05:53:42.935Z,4.70
2023-01-27T05:56:11.288Z,4.70
2023-01-27T05:58:39.078Z,4.80
2023-01-27T06:01:14.095Z,4.80
2023-01-27T06:03:41.510Z,4.70
2023-01-27T06:06:09.601Z,4.70
2023-01-27T06:08:37.091Z,4.80
2023-01-27T06:11:04.835Z,4.70
2023-01-27T06:13:32.081Z,4.70
2023-01-27T06:15:58.749Z,4.60
2023-01-27T06:18:25.473Z,4.60
2023-01-27T06:20:52.243Z,4.60
2023-01-27T06:23:18.927Z,4.60
2023-01-27T06:25:47.404Z,4.80
2023-01-27T06:28:28.160Z,4.60
2023-01-27T06:30:57.192Z,4.60
2023-01-27T06:33:24.117Z,4.60
2023-01-27T06:35:50.884Z,4.70
2023-01-27T06:38:17.674Z,4.70
2023-01-27T06:40:44.509Z,4.70
2023-01-27T06:43:17.431Z,4.80
2023-01-27T06:45:44.171Z,4.60
2023-01-27T06:48:10.909Z,4.60
2023-01-27T06:50:37.735Z,4.80
2023-01-27T06:53:06.672Z,4.60
2023-01-27T06:55:34.540Z,4.60
2023-01-27T06:58:02.538Z,4.70
2023-01-27T07:00:29.757Z,4.60
2023-01-27T07:02:57.805Z,4.60
2023-01-27T07:05:24.890Z,4.50
2023-01-27T07:07:51.828Z,4.70
2023-01-27T07:10:18.667Z,4.60
2023-01-27T07:12:45.506Z,4.50
2023-01-27T07:15:12.954Z,4.80
2023-01-27T07:17:40.034Z,4.60
2023-01-27T07:20:09.721Z,4.80
2023-01-27T07:22:36.365Z,4.60
2023-01-27T07:25:04.368Z,4.50
2023-01-27T07:27:31.116Z,4.50
2023-01-27T07:29:57.785Z,4.50
2023-01-27T07:32:27.131Z,4.50
2023-01-27T07:34:53.963Z,4.50
2023-01-27T07:37:21.785Z,4.50
2023-01-27T07:39:54.493Z,4.70
2023-01-27T07:42:21.141Z,4.50
2023-01-27T07:44:47.913Z,4.60
2023-01-27T07:47:14.761Z,4.40
2023-01-27T07:49:41.421Z,4.40
2023-01-27T07:52:08.155Z,4.40
2023-01-27T07:54:35.033Z,4.40
2023-01-27T07:57:02.079Z,4.70
2023-01-27T07:59:28.759Z,4.50
2023-01-27T08:01:55.546Z,4.40
2023-01-27T08:04:22.730Z,4.40
2023-01-27T08:06:49.422Z,4.30
2023-01-27T08:09:16.142Z,4.50
2023-01-27T08:11:42.880Z,4.60
2023-01-27T08:14:09.518Z,4.70
2023-01-27T08:16:36.161Z,4.40
2023-01-27T08:19:02.944Z,4.50
2023-01-27T08:21:32.878Z,4.30
2023-01-27T08:24:00.296Z,4.30
2023-01-27T08:26:27.484Z,4.30
2023-01-27T08:28:54.185Z,4.20
2023-01-27T08:31:21.271Z,4.20
2023-01-27T08:33:52.409Z,4.30
2023-01-27T08:36:21.595Z,4.20
2023-01-27T08:38:51.694Z,4.30
2023-01-27T08:41:26.446Z,4.40
2023-01-27T08:43:55.301Z,4.80
2023-01-27T08:46:22.122Z,4.90
2023-01-27T08:48:50.306Z,5.10
2023-01-27T08:51:17.203Z,5.00
2023-01-27T08:53:43.875Z,5.00
2023-01-27T08:56:15.408Z,5.20
2023-01-27T08:58:42.454Z,5.20
2023-01-27T09:01:09.648Z,5.30
2023-01-27T09:03:36.581Z,5.10
2023-01-27T09:06:04.248Z,5.10
2023-01-27T09:08:31.379Z,5.00
2023-01-27T09:10:58.358Z,5.00
2023-01-27T09:13:25.458Z,4.90
2023-01-27T09:15:52.868Z,4.80
2023-01-27T09:18:20.302Z,4.90
2023-01-27T09:20:47.031Z,4.90
2023-01-27T09:23:13.719Z,5.00
2023-01-27T09:25:40.422Z,5.00
2023-01-27T09:28:12.187Z,5.10
2023-01-27T09:30:40.842Z,5.10
2023-01-27T09:33:08.992Z,5.10
2023-01-27T09:35:41.954Z,5.00
2023-01-27T09:38:09.776Z,5.10
2023-01-27T09:40:57.084Z,5.10
2023-01-27T09:43:35.849Z,5.10
2023-01-27T09:46:46.222Z,5.30
2023-01-27T09:49:32.643Z,5.20
2023-01-27T09:52:46.450Z,5.20
2023-01-27T09:55:19.874Z,5.20
2023-01-27T09:58:42.793Z,5.30
2023-01-27T10:01:20.738Z,5.30
2023-01-27T10:04:31.731Z,5.30
2023-01-27T10:07:42.692Z,5.30
2023-01-27T10:10:22.528Z,5.40
2023-01-27T10:13:08.126Z,5.30
2023-01-27T10:15:45.019Z,4.90
2023-01-27T10:18:17.233Z,5.00
2023-01-27T10:21:01.208Z,5.30
2023-01-27T10:23:54.947Z,5.30
2023-01-27T10:26:35.821Z,5.60
2023-01-27T10:29:16.500Z,5.30
2023-01-27T10:31:56.789Z,5.20
2023-01-27T10:34:42.945Z,4.90
2023-01-27T10:37:35.881Z,5.20
2023-01-27T10:40:24.050Z,5.10
2023-01-27T10:43:04.384Z,5.10
2023-01-27T10:45:44.895Z,5.10
2023-01-27T10:48:14.615Z,5.20
2023-01-27T10:50:59.314Z,5.20
2023-01-27T10:53:51.821Z,4.90
2023-01-27T10:56:35.426Z,4.80
2023-01-27T10:59:30.663Z,5.20
2023-01-27T11:02:18.188Z,5.00
2023-01-27T11:05:10.578Z,5.00
2023-01-27T11:07:47.194Z,5.10
2023-01-27T11:10:21.382Z,5.10
2023-01-27T11:12:52.106Z,5.30
2023-01-27T11:15:34.828Z,5.20
2023-01-27T11:18:17.463Z,5.10
2023-01-27T11:20:49.443Z,5.30
2023-01-27T11:23:18.240Z,5.20
2023-01-27T11:25:58.658Z,5.60
2023-01-27T11:28:37.409Z,5.20
2023-01-27T11:31:42.865Z,5.20
2023-01-27T11:34:24.958Z,5.40
2023-01-27T11:36:51.992Z,5.30
2023-01-27T11:39:19.249Z,5.00
2023-01-27T11:41:55.654Z,5.00
2023-01-27T11:44:24.104Z,5.10
2023-01-27T11:46:51.846Z,5.20
2023-01-27T11:49:31.582Z,5.00
2023-01-27T11:52:19.597Z,4.90
2023-01-27T11:55:06.383Z,5.30
2023-01-27T11:57:35.646Z,5.30
2023-01-27T12:00:12.912Z,5.20
2023-01-27T12:02:47.579Z,5.20
2023-01-27T12:05:21.764Z,5.40
2023-01-27T12:08:00.417Z,5.20
2023-01-27T12:10:34.827Z,5.20
2023-01-27T12:13:08.049Z,5.20
2023-01-27T12:15:35.685Z,5.40
2023-01-27T12:18:13.558Z,5.40
2023-01-27T12:20:59.433Z,5.40
2023-01-27T12:23:56.378Z,5.60
2023-01-27T12:26:44.755Z,5.70
2023-01-27T12:29:22.857Z,5.60
2023-01-27T12:31:51.647Z,5.50
2023-01-27T12:34:27.216Z,5.20
2023-01-27T12:36:56.175Z,5.50
2023-01-27T12:39:41.789Z,5.60
2023-01-27T12:42:38.410Z,5.70
2023-01-27T12:45:29.896Z,5.50
2023-01-27T12:48:04.263Z,5.50
2023-01-27T12:50:33.668Z,5.60
2023-01-27T12:53:13.620Z,5.70
2023-01-27T12:56:11.578Z,5.80
2023-01-27T12:58:52.395Z,5.50
2023-01-27T13:01:33.976Z,5.60
2023-01-27T13:04:07.105Z,5.50
2023-01-27T13:06:48.483Z,5.40
2023-01-27T13:09:48.675Z,5.40
2023-01-27T13:12:25.430Z,5.60
2023-01-27T13:14:55.776Z,5.70
2023-01-27T13:17:52.692Z,5.50
2023-01-27T13:20:43.650Z,5.90
2023-01-27T13:23:28.435Z,5.50
2023-01-27T13:26:09.338Z,5.40
2023-01-27T13:29:00.036Z,5.70
2023-01-27T13:31:55.879Z,5.60
2023-01-27T13:34:47.529Z,5.30
2023-01-27T13:37:29.164Z,5.50
2023-01-27T13:40:23.536Z,5.40
2023-01-27T13:43:10.578Z,5.40
2023-01-27T13:45:48.112Z,5.50
2023-01-27T13:48:20.900Z,5.20
2023-01-27T13:51:01.520Z,5.40
2023-01-27T13:53:29.321Z,5.10
2023-01-27T13:56:14.103Z,5.10
2023-01-27T13:58:56.312Z,5.30
2023-01-27T14:01:40.997Z,5.20
2023-01-27T14:04:20.169Z,5.10
2023-01-27T14:06:56.763Z,5.40
2023-01-27T14:09:44.080Z,5.20
2023-01-27T14:12:31.945Z,5.20
2023-01-27T14:15:20.538Z,5.20
2023-01-27T14:18:11.915Z,5.00
2023-01-27T14:20:41.510Z,5.00
2023-01-27T14:23:39.142Z,5.00
2023-01-27T14:26:17.873Z,5.00
2023-01-27T14:29:05.325Z,5.00
2023-01-27T14:31:47.221Z,4.90
2023-01-27T14:34:36.337Z,4.90
2023-01-27T14:37:31.642Z,5.10
2023-01-27T14:40:21.655Z,4.90
2023-01-27T14:43:20.493Z,5.10
2023-01-27T14:46:17.923Z,4.90
2023-01-27T14:48:52.061Z,4.90
2023-01-27T14:51:40.972Z,4.80
2023-01-27T14:54:47.823Z,4.90
2023-01-27T14:57:35.746Z,5.00
2023-01-27T15:00:25.640Z,4.90
2023-01-27T15:02:59.102Z,5.00
2023-01-27T15:05:31.141Z,4.90
2023-01-27T15:08:18.434Z,4.70
2023-01-27T15:11:16.256Z,4.90
2023-01-27T15:14:18.055Z,4.90
2023-01-27T15:16:56.332Z,4.70
2023-01-27T15:19:59.074Z,4.80
2023-01-27T15:22:40.911Z,4.60
2023-01-27T15:25:20.223Z,4.70
2023-01-27T15:27:52.492Z,4.80
2023-01-27T15:30:38.500Z,4.90
2023-01-27T15:33:42.618Z,4.80
2023-01-27T15:36:32.137Z,4.70
2023-01-27T15:39:16.647Z,4.90
2023-01-27T15:41:54.235Z,4.80
2023-01-27T15:44:41.519Z,4.80
2023-01-27T15:47:08.243Z,4.80
2023-01-27T15:49:44.145Z,4.80
2023-01-27T15:52:26.236Z,4.70
2023-01-27T15:55:01.354Z,4.70
2023-01-27T15:57:41.077Z,4.80
2023-01-27T16:00:46.347Z,4.70
2023-01-27T16:03:37.999Z,4.60
2023-01-27T16:06:09.783Z,4.90
2023-01-27T16:08:45.061Z,5.00
2023-01-27T16:11:29.776Z,5.10
2023-01-27T16:14:11.801Z,5.00
2023-01-27T16:16:40.736Z,4.90
2023-01-27T16:19:11.071Z,4.90
2023-01-27T16:21:49.667Z,4.80
2023-01-27T16:24:50.549Z,4.70
2023-01-27T16:27:47.843Z,4.70
2023-01-27T16:30:23.258Z,4.70
2023-01-27T16:33:06.623Z,4.80
2023-01-27T16:35:48.462Z,4.90
2023-01-27T16:38:40.391Z,4.80
2023-01-27T16:41:31.693Z,4.80
2023-01-27T16:44:15.821Z,5.00
2023-01-27T16:47:16.031Z,4.80
2023-01-27T16:49:44.048Z,4.80
2023-01-27T16:52:32.426Z,5.00
2023-01-27T16:55:12.586Z,5.10
2023-01-27T16:57:47.292Z,5.00
2023-01-27T17:00:23.507Z,4.90
2023-01-27T17:02:55.214Z,4.80
2023-01-27T17:05:23.392Z,4.60
2023-01-27T17:08:11.943Z,4.90
2023-01-27T17:10:43.591Z,4.70
2023-01-27T17:13:35.711Z,4.60
2023-01-27T17:16:05.998Z,4.60
2023-01-27T17:18:50.770Z,4.90
2023-01-27T17:21:36.853Z,4.70
2023-01-27T17:24:14.606Z,4.70
2023-01-27T17:26:45.068Z,4.70
2023-01-27T17:29:21.994Z,4.80
2023-01-27T17:31:50.063Z,4.90
2023-01-27T17:34:19.840Z,4.80
2023-01-27T17:37:15.029Z,4.70
2023-01-27T17:39:41.841Z,4.70
2023-01-27T17:42:16.842Z,4.50
2023-01-27T17:44:48.917Z,4.50
2023-01-27T17:47:20.703Z,4.50
2023-01-27T17:49:49.746Z,4.40
2023-01-27T17:52:23.967Z,4.40
2023-01-27T17:54:52.395Z,4.40
2023-01-27T17:57:36.271Z,4.60
2023-01-27T18:00:25.582Z,4.80
2023-01-27T18:02:58.641Z,4.80
2023-01-27T18:05:30.189Z,4.70
2023-01-27T18:07:57.155Z,4.70
2023-01-27T18:10:34.606Z,5.00
2023-01-27T18:13:24.600Z,4.90
2023-01-27T18:16:18.057Z,5.00
2023-01-27T18:18:45.923Z,4.70
2023-01-27T18:21:27.472Z,5.20
2023-01-27T18:23:57.364Z,4.80
2023-01-27T18:26:26.786Z,5.10
2023-01-27T18:29:22.256Z,4.90
2023-01-27T18:31:59.164Z,4.70
2023-01-27T18:34:31.421Z,4.60
2023-01-27T18:36:59.380Z,4.40
2023-01-27T18:39:36.085Z,4.60
2023-01-27T18:42:04.125Z,5.00
2023-01-27T18:44:39.400Z,4.70
2023-01-27T18:47:30.233Z,4.50
2023-01-27T18:49:58.779Z,4.70
2023-01-27T18:52:26.158Z,4.60
2023-01-27T18:55:23.094Z,4.50
2023-01-27T18:57:51.535Z,4.50
2023-01-27T19:00:23.871Z,4.40
2023-01-27T19:02:55.689Z,4.50
2023-01-27T19:05:28.891Z,4.40
2023-01-27T19:08:01.798Z,4.30
2023-01-27T19:10:38.496Z,4.40
2023-01-27T19:13:05.690Z,4.30
2023-01-27T19:15:39.400Z,4.30
2023-01-27T19:18:15.188Z,4.20
2023-01-27T19:20:44.523Z,4.30
2023-01-27T19:23:15.720Z,4.20
2023-01-27T19:25:47.557Z,4.30
2023-01-27T19:28:21.113Z,4.30
2023-01-27T19:30:51.830Z,4.40
2023-01-27T19:33:28.929Z,4.20
2023-01-27T19:36:00.064Z,4.10
2023-01-27T19:38:29.728Z,4.20
2023-01-27T19:40:58.908Z,4.20
2023-01-27T19:43:25.802Z,4.30
2023-01-27T19:45:55.410Z,4.20
2023-01-27T19:48:24.466Z,4.20
2023-01-27T19:50:56.278Z,4.20
2023-01-27T19:53:25.731Z,4.30
2023-01-27T19:55:58.169Z,4.30
2023-01-27T19:58:32.172Z,4.10
2023-01-27T20:00:59.752Z,4.30
2023-01-27T20:03:26.637Z,4.10
2023-01-27T20:05:53.424Z,4.10
2023-01-27T20:08:24.414Z,4.30
2023-01-27T20:10:51.383Z,4.10
2023-01-27T20:13:20.974Z,4.20
2023-01-27T20:15:53.405Z,4.20
2023-01-27T20:18:24.032Z,4.10
2023-01-27T20:20:50.728Z,4.20
2023-01-27T20:23:20.302Z,4.00
2023-01-27T20:25:47.407Z,4.00
2023-01-27T20:28:14.402Z,4.20
2023-01-27T20:30:46.722Z,4.10
2023-01-27T20:33:14.821Z,3.90
2023-01-27T20:35:42.655Z,4.20
2023-01-27T20:38:12.642Z,4.20
2023-01-27T20:40:39.425Z,4.00
2023-01-27T20:43:11.532Z,4.00
2023-01-27T20:45:41.289Z,4.10
2023-01-27T20:48:10.852Z,4.00
2023-01-27T20:50:39.346Z,4.00
2023-01-27T20:53:12.076Z,3.90
2023-01-27T20:55:38.844Z,3.80
2023-01-27T20:58:05.640Z,4.10
2023-01-27T21:00:32.824Z,3.90
2023-01-27T21:03:04.246Z,4.00
2023-01-27T21:05:32.217Z,4.20
2023-01-27T21:08:03.682Z,4.10
2023-01-27T21:10:32.210Z,4.30
2023-01-27T21:13:02.954Z,4.10
2023-01-27T21:15:30.040Z,4.10
2023-01-27T21:17:57.029Z,3.90
2023-01-27T21:20:23.874Z,3.90
2023-01-27T21:22:50.593Z,4.10
2023-01-27T21:25:17.882Z,3.90
2023-01-27T21:27:50.134Z,3.90
2023-01-27T21:30:19.657Z,4.00
2023-01-27T21:33:03.506Z,4.00
2023-01-27T21:35:31.555Z,4.10
2023-01-27T21:37:58.513Z,4.10
2023-01-27T21:40:25.781Z,4.10
2023-01-27T21:43:13.416Z,4.20
2023-01-27T21:45:42.425Z,4.30
2023-01-27T21:48:09.295Z,4.60
2023-01-27T21:50:42.609Z,5.00
2023-01-27T21:53:10.636Z,5.30
2023-01-27T21:55:40.531Z,5.10
2023-01-27T21:58:07.186Z,5.20
2023-01-27T22:00:40.315Z,5.40
2023-01-27T22:03:07.092Z,5.10
2023-01-27T22:05:42.316Z,5.20
2023-01-27T22:08:11.456Z,5.10
2023-01-27T22:10:39.165Z,5.40
2023-01-27T22:13:08.315Z,5.20
2023-01-27T22:15:35.410Z,5.00
2023-01-27T22:18:07.154Z,5.20
2023-01-27T22:20:33.822Z,4.80
2023-01-27T22:23:02.806Z,5.00
2023-01-27T22:25:31.680Z,4.90
2023-01-27T22:28:01.996Z,5.30
2023-01-27T22:30:35.516Z,4.50
2023-01-27T22:33:08.217Z,5.30
2023-01-27T22:35:35.136Z,5.20
2023-01-27T22:38:07.800Z,5.50
2023-01-27T22:40:37.777Z,5.70
2023-01-27T22:43:10.234Z,5.80
2023-01-27T22:45:40.463Z,6.00
2023-01-27T22:48:08.798Z,6.00
2023-01-27T22:50:36.631Z,5.80
2023-01-27T22:53:05.265Z,5.80
2023-01-27T22:55:32.389Z,5.60
2023-01-27T22:57:59.151Z,5.90
2023-01-27T23:00:25.914Z,5.60
2023-01-27T23:02:52.540Z,5.70
2023-01-27T23:05:19.333Z,5.30
2023-01-27T23:07:47.508Z,5.50
2023-01-27T23:10:14.416Z,5.60
2023-01-27T23:12:41.154Z,5.10
2023-01-27T23:15:08.337Z,5.20
2023-01-27T23:17:35.195Z,5.30
2023-01-27T23:20:02.246Z,4.90
2023-01-27T23:22:28.981Z,5.40
2023-01-27T23:24:55.832Z,5.60
2023-01-27T23:27:22.722Z,5.30
2023-01-27T23:29:49.447Z,5.30
2023-01-27T23:32:16.187Z,5.10
2023-01-27T23:34:42.922Z,5.50
2023-01-27T23:37:09.652Z,5.90
2023-01-27T23:39:36.459Z,6.00
2023-01-27T23:42:03.197Z,5.80
2023-01-27T23:44:29.982Z,6.20
2023-01-27T23:46:56.779Z,5.90
2023-01-27T23:49:23.476Z,5.80
2023-01-27T23:51:50.215Z,5.70
2023-01-27T23:54:17.004Z,5.50
2023-01-27T23:56:43.669Z,5.30
2023-01-27T23:59:12.017Z,5.40
